createdAt,value
2023-04-13T00:04:32.772Z,0.00
2023-04-13T00:15:34.477Z,0.00
2023-04-13T00:26:36.286Z,0.00
2023-04-13T00:37:38.000Z,0.00
2023-04-13T00:48:39.764Z,0.00
2023-04-13T00:59:41.474Z,0.00
2023-04-13T01:10:43.249Z,0.00
2023-04-13T01:14:24.802Z,2.35
2023-04-13T01:21:46.453Z,2.09
2023-04-13T01:25:28.179Z,3.60
2023-04-13T01:29:09.866Z,8.15
2023-04-13T01:32:51.621Z,5.94
2023-04-13T01:40:13.318Z,3.17
2023-04-13T01:43:54.935Z,2.58
2023-04-13T01:47:36.610Z,6.12
2023-04-13T01:51:18.228Z,2.98
2023-04-13T01:54:59.897Z,3.52
2023-04-13T01:58:41.652Z,4.61
2023-04-13T02:02:23.676Z,5.49
2023-04-13T02:13:25.251Z,2.09
2023-04-13T02:24:26.963Z,0.00
2023-04-13T02:35:28.714Z,0.00
2023-04-13T02:39:10.283Z,3.25
2023-04-13T02:42:51.992Z,4.13
2023-04-13T02:46:33.595Z,2.48
2023-04-13T02:50:15.222Z,2.20
2023-04-13T02:53:58.054Z,3.11
2023-04-13T02:57:38.544Z,3.25
2023-04-13T03:08:40.312Z,0.00
2023-04-13T03:19:42.081Z,0.00
2023-04-13T03:30:43.785Z,0.00
2023-04-13T03:41:45.554Z,0.00
2023-04-13T03:52:47.286Z,0.00
2023-04-13T04:03:49.129Z,0.00
2023-04-13T04:14:51.798Z,0.00
2023-04-13T04:22:13.557Z,3.12
2023-04-13T04:33:15.291Z,0.00
2023-04-13T04:44:17.033Z,0.00
2023-04-13T04:47:58.631Z,3.84
2023-04-13T04:55:20.295Z,1.96
2023-04-13T05:02:42.087Z,2.87
2023-04-13T05:06:23.577Z,2.40
2023-04-13T05:10:05.170Z,2.22
2023-04-13T05:13:46.797Z,3.12
2023-04-13T05:17:28.621Z,4.08
2023-04-13T05:21:10.329Z,4.38
2023-04-13T05:24:51.931Z,2.28
2023-04-13T05:28:33.545Z,1.90
2023-04-13T05:39:35.292Z,2.59
2023-04-13T05:43:16.879Z,2.09
2023-04-13T05:54:18.613Z,0.00
2023-04-13T05:58:00.394Z,2.86
2023-04-13T06:01:41.981Z,2.25
2023-04-13T06:12:43.688Z,0.00
2023-04-13T06:23:45.488Z,0.00
2023-04-13T06:34:47.154Z,0.00
2023-04-13T06:45:49.047Z,0.00
2023-04-13T06:56:50.632Z,0.00
2023-04-13T07:07:52.396Z,0.00
2023-04-13T07:18:54.158Z,0.00
2023-04-13T07:29:55.992Z,0.00
2023-04-13T07:40:57.613Z,4.06
2023-04-13T07:44:39.230Z,2.38
2023-04-13T07:55:41.023Z,0.00
2023-04-13T08:06:42.690Z,0.00
2023-04-13T08:17:44.643Z,0.00
2023-04-13T08:28:46.224Z,0.00
2023-04-13T08:39:47.939Z,0.00
2023-04-13T08:50:49.646Z,0.00
2023-04-13T09:01:51.569Z,0.00
2023-04-13T09:12:53.132Z,0.00
2023-04-13T09:23:54.883Z,0.00
2023-04-13T09:34:56.626Z,2.35
2023-04-13T09:38:38.230Z,3.06
2023-04-13T09:42:19.918Z,3.90
2023-04-13T09:46:01.715Z,2.59
2023-04-13T09:49:43.454Z,4.14
2023-04-13T09:53:24.986Z,3.15
2023-04-13T09:57:06.697Z,2.09
2023-04-13T10:00:48.357Z,3.25
2023-04-13T10:04:30.057Z,2.42
2023-04-13T10:08:11.583Z,2.48
2023-04-13T10:19:13.486Z,2.17
2023-04-13T10:22:54.981Z,2.98
2023-04-13T10:33:56.901Z,3.07
2023-04-13T10:37:38.465Z,2.48
2023-04-13T10:41:20.062Z,3.05
2023-04-13T10:45:01.757Z,3.16
2023-04-13T10:52:23.486Z,3.28
2023-04-13T10:56:05.327Z,2.16
2023-04-13T11:03:28.409Z,2.61
2023-04-13T11:07:10.053Z,4.06
2023-04-13T11:10:51.965Z,5.57
2023-04-13T11:14:33.638Z,3.66
2023-04-13T11:21:55.573Z,5.30
2023-04-13T11:25:37.562Z,5.64
2023-04-13T11:29:19.385Z,6.17
2023-04-13T11:33:01.195Z,6.34
2023-04-13T11:36:42.942Z,7.15
2023-04-13T11:40:24.670Z,5.96
2023-04-13T11:44:06.348Z,4.80
2023-04-13T11:47:48.258Z,4.86
2023-04-13T11:51:29.856Z,4.09
2023-04-13T11:55:22.159Z,3.01
2023-04-13T11:58:53.310Z,3.16
2023-04-13T12:02:41.629Z,5.21
2023-04-13T12:06:17.240Z,3.02
2023-04-13T12:09:59.414Z,2.60
2023-04-13T12:13:46.389Z,2.74
2023-04-13T12:24:42.727Z,2.09
2023-04-13T12:28:23.390Z,3.67
2023-04-13T12:39:25.099Z,0.00
2023-04-13T12:43:06.682Z,2.28
2023-04-13T12:46:48.364Z,2.43
2023-04-13T12:50:31.321Z,2.29
2023-04-13T12:54:11.514Z,2.09
2023-04-13T12:57:53.114Z,2.90
2023-04-13T13:01:34.719Z,2.09
2023-04-13T13:08:56.401Z,1.90
2023-04-13T13:12:38.027Z,3.50
2023-04-13T13:16:19.692Z,2.66
2023-04-13T13:20:02.956Z,3.87
2023-04-13T13:38:24.832Z,0.00
2023-04-13T13:42:06.582Z,2.92
2023-04-13T13:45:48.199Z,2.67
2023-04-13T13:49:29.735Z,2.48
2023-04-13T13:53:11.304Z,2.09
2023-04-13T14:04:13.205Z,0.00
2023-04-13T14:15:14.817Z,0.00
2023-04-13T14:26:16.587Z,0.00
2023-04-13T14:33:38.233Z,4.02
2023-04-13T14:44:40.051Z,0.00
2023-04-13T14:48:21.634Z,2.09
2023-04-13T14:52:03.236Z,2.48
2023-04-13T15:03:05.306Z,0.00
2023-04-13T15:14:06.724Z,0.00
2023-04-13T15:17:48.359Z,1.70
2023-04-13T15:25:10.011Z,1.70
2023-04-13T15:36:11.735Z,0.00
2023-04-13T15:39:53.313Z,2.09
2023-04-13T15:47:15.048Z,3.74
2023-04-13T15:58:16.757Z,2.22
2023-04-13T16:09:18.521Z,0.00
2023-04-13T16:20:20.321Z,3.44
2023-04-13T16:31:22.107Z,0.00
2023-04-13T16:35:03.763Z,2.91
2023-04-13T16:38:45.421Z,3.26
2023-04-13T16:42:27.309Z,3.72
2023-04-13T16:46:08.991Z,2.51
2023-04-13T16:49:50.784Z,3.03
2023-04-13T16:53:32.556Z,4.30
2023-04-13T16:57:14.291Z,2.99
2023-04-13T17:00:55.962Z,2.25
2023-04-13T17:04:37.958Z,3.73
2023-04-13T17:08:19.574Z,4.09
2023-04-13T17:15:41.220Z,3.01
2023-04-13T17:26:43.060Z,0.00
2023-04-13T17:37:44.774Z,0.00
2023-04-13T17:48:46.724Z,0.00
2023-04-13T17:59:48.896Z,5.63
2023-04-13T18:03:31.112Z,3.34
2023-04-13T18:07:12.658Z,2.61
2023-04-13T18:10:56.580Z,2.09
2023-04-13T18:14:36.295Z,4.89
2023-04-13T18:25:38.302Z,2.77
2023-04-13T18:36:40.122Z,0.00
2023-04-13T18:47:42.090Z,0.00
2023-04-13T18:58:44.126Z,0.00
2023-04-13T19:09:46.201Z,0.00
2023-04-13T19:20:48.174Z,0.00
2023-04-13T19:31:50.273Z,0.00
2023-04-13T19:42:52.252Z,0.00
2023-04-13T19:46:34.229Z,2.29
2023-04-13T19:57:36.180Z,0.00
2023-04-13T20:08:38.147Z,0.00
2023-04-13T20:12:19.903Z,1.90
2023-04-13T20:23:21.790Z,0.00
2023-04-13T20:34:23.564Z,0.00
2023-04-13T20:45:25.473Z,0.00
2023-04-13T20:56:27.323Z,0.00
2023-04-13T21:07:29.126Z,0.00
2023-04-13T21:18:30.840Z,0.00
2023-04-13T21:29:32.609Z,0.00
2023-04-13T21:40:34.335Z,0.00
2023-04-13T21:51:36.106Z,0.00
2023-04-13T22:02:37.967Z,0.00
2023-04-13T22:13:39.640Z,0.00
2023-04-13T22:24:41.323Z,0.00
2023-04-13T22:35:43.073Z,0.00
2023-04-13T22:46:44.854Z,0.00
2023-04-13T22:57:46.600Z,0.00
2023-04-13T23:08:48.342Z,0.00
2023-04-13T23:19:50.134Z,0.00
2023-04-13T23:30:51.869Z,0.00
2023-04-13T23:41:53.628Z,0.00
2023-04-13T23:52:55.350Z,0.00
